createdAt,value
2023-03-20T00:00:55.047Z,13.11
2023-03-20T00:01:55.054Z,13.09
2023-03-20T00:02:55.035Z,13.11
2023-03-20T00:03:55.130Z,13.12
2023-03-20T00:04:55.116Z,13.09
2023-03-20T00:05:55.040Z,13.12
2023-03-20T00:06:55.089Z,13.16
2023-03-20T00:07:55.026Z,13.11
2023-03-20T00:08:55.037Z,13.05
2023-03-20T00:09:55.036Z,13.08
2023-03-20T00:10:55.030Z,13.05
2023-03-20T00:11:55.009Z,13.04
2023-03-20T00:12:55.008Z,13.01
2023-03-20T00:13:55.032Z,13.04
2023-03-20T00:14:55.014Z,13.00
2023-03-20T00:15:55.068Z,13.03
2023-03-20T00:16:55.001Z,13.03
2023-03-20T00:17:55.013Z,12.98
2023-03-20T00:18:54.984Z,12.94
2023-03-20T00:19:54.984Z,12.97
2023-03-20T00:20:54.991Z,13.00
2023-03-20T00:21:55.055Z,12.93
2023-03-20T00:22:54.990Z,12.87
2023-03-20T00:23:54.998Z,12.93
2023-03-20T00:24:54.977Z,12.95
2023-03-20T00:25:54.970Z,12.95
2023-03-20T00:26:54.980Z,12.93
2023-03-20T00:27:54.954Z,12.87
2023-03-20T00:28:54.947Z,12.86
2023-03-20T00:29:54.960Z,12.86
2023-03-20T00:30:54.945Z,12.78
2023-03-20T00:31:54.968Z,12.73
2023-03-20T00:32:54.981Z,12.72
2023-03-20T00:33:54.935Z,12.72
2023-03-20T00:34:54.928Z,12.75
2023-03-20T00:35:54.981Z,12.76
2023-03-20T00:36:54.918Z,12.75
2023-03-20T00:37:54.926Z,12.80
2023-03-20T00:38:54.916Z,12.80
2023-03-20T00:39:54.909Z,12.72
2023-03-20T00:40:54.912Z,12.70
2023-03-20T00:41:54.926Z,12.76
2023-03-20T00:42:54.896Z,12.67
2023-03-20T00:43:54.918Z,12.67
2023-03-20T00:44:54.924Z,12.65
2023-03-20T00:45:54.902Z,12.58
2023-03-20T00:46:54.924Z,12.73
2023-03-20T00:47:54.899Z,12.64
2023-03-20T00:48:54.895Z,12.58
2023-03-20T00:49:54.874Z,12.60
2023-03-20T00:50:54.882Z,12.54
2023-03-20T00:51:54.868Z,12.55
2023-03-20T00:52:54.866Z,12.55
2023-03-20T00:53:54.904Z,12.50
2023-03-20T00:54:54.863Z,12.53
2023-03-20T00:55:54.867Z,12.54
2023-03-20T00:56:54.845Z,12.53
2023-03-20T00:57:54.860Z,12.54
2023-03-20T00:58:54.847Z,12.50
2023-03-20T00:59:54.857Z,12.54
2023-03-20T01:00:55.010Z,12.49
2023-03-20T01:01:54.858Z,12.49
2023-03-20T01:02:54.860Z,12.50
2023-03-20T01:03:54.841Z,12.45
2023-03-20T01:04:54.829Z,12.45
2023-03-20T01:05:54.861Z,12.49
2023-03-20T01:06:54.822Z,12.43
2023-03-20T01:07:54.809Z,12.43
2023-03-20T01:08:54.814Z,12.37
2023-03-20T01:09:54.804Z,12.43
2023-03-20T01:10:54.794Z,12.45
2023-03-20T01:11:54.802Z,12.45
2023-03-20T01:12:54.800Z,12.37
2023-03-20T01:13:54.794Z,12.45
2023-03-20T01:14:54.795Z,12.43
2023-03-20T01:15:54.784Z,12.42
2023-03-20T01:16:54.826Z,12.40
2023-03-20T01:17:54.775Z,12.39
2023-03-20T01:18:54.768Z,12.39
2023-03-20T01:19:54.777Z,12.29
2023-03-20T01:20:54.752Z,12.39
2023-03-20T01:21:54.760Z,12.35
2023-03-20T01:22:54.770Z,12.35
2023-03-20T01:23:54.769Z,12.29
2023-03-20T01:24:54.767Z,12.35
2023-03-20T01:25:54.782Z,12.35
2023-03-20T01:26:54.800Z,12.27
2023-03-20T01:27:54.730Z,12.29
2023-03-20T01:28:54.739Z,12.36
2023-03-20T01:29:54.764Z,12.31
2023-03-20T01:30:54.718Z,12.37
2023-03-20T01:31:54.798Z,12.28
2023-03-20T01:32:54.822Z,12.35
2023-03-20T01:33:54.726Z,12.32
2023-03-20T01:34:54.724Z,12.24
2023-03-20T01:35:54.749Z,12.24
2023-03-20T01:36:54.700Z,12.32
2023-03-20T01:37:54.696Z,12.24
2023-03-20T01:38:54.697Z,12.32
2023-03-20T01:39:54.690Z,12.24
2023-03-20T01:40:54.688Z,12.35
2023-03-20T01:41:54.688Z,12.27
2023-03-20T01:42:54.682Z,12.27
2023-03-20T01:43:54.677Z,12.37
2023-03-20T01:44:54.663Z,12.21
2023-03-20T01:45:54.692Z,12.22
2023-03-20T01:46:54.725Z,12.27
2023-03-20T01:47:54.663Z,12.22
2023-03-20T01:48:54.653Z,12.20
2023-03-20T01:49:54.652Z,12.24
2023-03-20T01:50:54.665Z,12.24
2023-03-20T01:51:54.647Z,12.22
2023-03-20T01:52:54.654Z,12.20
2023-03-20T01:53:54.645Z,12.18
2023-03-20T01:54:54.670Z,12.24
2023-03-20T01:55:54.632Z,12.24
2023-03-20T01:56:54.619Z,12.17
2023-03-20T01:57:54.631Z,12.22
2023-03-20T01:58:54.613Z,12.17
2023-03-20T01:59:54.615Z,12.25
2023-03-20T02:00:54.674Z,12.18
2023-03-20T02:01:54.617Z,12.17
2023-03-20T02:02:54.604Z,12.22
2023-03-20T02:03:54.600Z,12.20
2023-03-20T02:04:54.715Z,12.27
2023-03-20T02:05:54.619Z,12.18
2023-03-20T02:06:54.590Z,12.09
2023-03-20T02:07:54.589Z,12.12
2023-03-20T02:08:54.579Z,12.15
2023-03-20T02:09:54.581Z,12.12
2023-03-20T02:10:54.568Z,12.10
2023-03-20T02:11:54.590Z,12.13
2023-03-20T02:12:54.580Z,12.10
2023-03-20T02:13:54.554Z,12.27
2023-03-20T02:14:54.569Z,12.13
2023-03-20T02:15:54.550Z,12.13
2023-03-20T02:16:54.571Z,12.17
2023-03-20T02:17:54.549Z,12.15
2023-03-20T02:18:54.530Z,12.18
2023-03-20T02:19:54.541Z,12.15
2023-03-20T02:20:54.536Z,12.13
2023-03-20T02:21:54.534Z,12.13
2023-03-20T02:22:54.535Z,12.07
2023-03-20T02:23:54.526Z,12.07
2023-03-20T02:24:54.509Z,12.13
2023-03-20T02:25:54.515Z,12.10
2023-03-20T02:26:54.507Z,12.07
2023-03-20T02:27:54.502Z,12.09
2023-03-20T02:28:54.497Z,12.00
2023-03-20T02:29:54.500Z,12.02
2023-03-20T02:30:54.492Z,12.02
2023-03-20T02:31:54.493Z,11.97
2023-03-20T02:32:54.519Z,12.02
2023-03-20T02:33:54.482Z,12.00
2023-03-20T02:34:54.474Z,12.07
2023-03-20T02:35:54.614Z,12.03
2023-03-20T02:36:54.471Z,12.02
2023-03-20T02:37:54.460Z,12.06
2023-03-20T02:38:54.455Z,12.00
2023-03-20T02:39:54.461Z,12.10
2023-03-20T02:40:54.493Z,12.02
2023-03-20T02:41:54.469Z,12.06
2023-03-20T02:42:54.435Z,12.06
2023-03-20T02:43:54.446Z,11.91
2023-03-20T02:44:54.443Z,11.99
2023-03-20T02:45:54.452Z,11.95
2023-03-20T02:46:54.424Z,11.94
2023-03-20T02:47:54.418Z,11.94
2023-03-20T02:48:54.436Z,11.99
2023-03-20T02:49:54.441Z,11.91
2023-03-20T02:50:54.418Z,11.97
2023-03-20T02:51:54.419Z,11.88
2023-03-20T02:52:54.443Z,11.90
2023-03-20T02:53:54.416Z,11.94
2023-03-20T02:54:54.393Z,11.95
2023-03-20T02:55:54.405Z,11.95
2023-03-20T02:56:54.392Z,11.94
2023-03-20T02:57:54.386Z,11.94
2023-03-20T02:58:54.382Z,11.87
2023-03-20T02:59:54.392Z,11.88
2023-03-20T03:00:54.375Z,11.94
2023-03-20T03:01:54.429Z,11.91
2023-03-20T03:02:54.371Z,12.02
2023-03-20T03:03:54.387Z,11.97
2023-03-20T03:04:54.358Z,11.94
2023-03-20T03:05:54.345Z,11.97
2023-03-20T03:06:54.341Z,11.94
2023-03-20T03:07:54.338Z,11.99
2023-03-20T03:08:54.343Z,11.95
2023-03-20T03:09:54.367Z,11.94
2023-03-20T03:10:54.329Z,11.91
2023-03-20T03:11:54.333Z,11.87
2023-03-20T03:12:54.328Z,11.95
2023-03-20T03:13:54.312Z,11.97
2023-03-20T03:14:54.318Z,11.94
2023-03-20T03:15:54.332Z,11.91
2023-03-20T03:16:54.317Z,11.91
2023-03-20T03:17:54.311Z,11.99
2023-03-20T03:18:54.330Z,11.87
2023-03-20T03:19:54.316Z,11.97
2023-03-20T03:20:54.302Z,11.94
2023-03-20T03:21:54.280Z,11.88
2023-03-20T03:22:54.293Z,11.81
2023-03-20T03:23:54.271Z,11.81
2023-03-20T03:24:54.284Z,11.90
2023-03-20T03:25:54.275Z,11.86
2023-03-20T03:26:54.337Z,11.87
2023-03-20T03:27:54.272Z,11.83
2023-03-20T03:28:54.350Z,11.84
2023-03-20T03:29:54.314Z,11.84
2023-03-20T03:30:54.275Z,11.86
2023-03-20T03:31:54.302Z,11.81
2023-03-20T03:32:54.265Z,11.87
2023-03-20T03:33:54.237Z,11.95
2023-03-20T03:34:54.242Z,11.95
2023-03-20T03:35:54.271Z,11.78
2023-03-20T03:36:54.228Z,11.81
2023-03-20T03:37:54.228Z,11.83
2023-03-20T03:38:54.240Z,11.84
2023-03-20T03:39:54.206Z,11.88
2023-03-20T03:40:54.211Z,11.90
2023-03-20T03:41:54.197Z,11.87
2023-03-20T03:42:54.214Z,11.80
2023-03-20T03:43:54.183Z,11.78
2023-03-20T03:44:54.192Z,11.87
2023-03-20T03:45:54.186Z,11.83
2023-03-20T03:46:54.248Z,11.84
2023-03-20T03:47:54.171Z,11.88
2023-03-20T03:48:54.188Z,11.95
2023-03-20T03:49:54.175Z,11.81
2023-03-20T03:50:54.170Z,11.88
2023-03-20T03:51:54.174Z,11.78
2023-03-20T03:52:54.167Z,11.78
2023-03-20T03:53:54.150Z,11.86
2023-03-20T03:54:54.164Z,11.80
2023-03-20T03:55:54.174Z,11.81
2023-03-20T03:56:54.140Z,11.80
2023-03-20T03:57:54.134Z,11.80
2023-03-20T03:58:54.135Z,11.80
2023-03-20T03:59:54.119Z,11.78
2023-03-20T04:00:54.122Z,11.83
2023-03-20T04:01:54.267Z,11.81
2023-03-20T04:02:54.134Z,11.80
2023-03-20T04:03:54.122Z,11.86
2023-03-20T04:04:54.199Z,11.73
2023-03-20T04:05:54.122Z,11.73
2023-03-20T04:06:54.098Z,11.78
2023-03-20T04:07:54.102Z,11.72
2023-03-20T04:08:54.094Z,11.78
2023-03-20T04:09:54.097Z,11.78
2023-03-20T04:10:54.082Z,11.68
2023-03-20T04:11:54.078Z,11.69
2023-03-20T04:12:54.084Z,11.72
2023-03-20T04:13:54.069Z,11.70
2023-03-20T04:14:54.091Z,11.77
2023-03-20T04:15:54.093Z,11.84
2023-03-20T04:16:54.084Z,11.72
2023-03-20T04:17:54.050Z,11.77
2023-03-20T04:18:54.057Z,11.73
2023-03-20T04:19:54.048Z,11.75
2023-03-20T04:20:54.049Z,11.77
2023-03-20T04:21:54.050Z,11.77
2023-03-20T04:22:54.059Z,11.72
2023-03-20T04:23:54.042Z,11.68
2023-03-20T04:24:54.028Z,11.70
2023-03-20T04:25:54.042Z,11.78
2023-03-20T04:26:54.029Z,11.73
2023-03-20T04:27:54.045Z,11.73
2023-03-20T04:28:54.012Z,11.69
2023-03-20T04:29:54.006Z,11.73
2023-03-20T04:30:54.009Z,11.72
2023-03-20T04:31:54.045Z,11.69
2023-03-20T04:32:54.064Z,11.69
2023-03-20T04:33:53.986Z,11.72
2023-03-20T04:34:53.995Z,11.72
2023-03-20T04:35:54.009Z,11.83
2023-03-20T04:36:53.981Z,11.78
2023-03-20T04:37:53.984Z,11.77
2023-03-20T04:38:57.045Z,11.73
2023-03-20T04:39:53.968Z,11.75
2023-03-20T04:40:53.987Z,11.77
2023-03-20T04:41:53.969Z,11.78
2023-03-20T04:42:53.954Z,11.70
2023-03-20T04:43:53.954Z,11.77
2023-03-20T04:44:53.944Z,11.69
2023-03-20T04:45:53.961Z,11.70
2023-03-20T04:46:53.950Z,11.73
2023-03-20T04:47:53.937Z,11.69
2023-03-20T04:48:53.938Z,11.73
2023-03-20T04:49:53.918Z,11.75
2023-03-20T04:50:53.933Z,11.72
2023-03-20T04:51:53.920Z,11.77
2023-03-20T04:52:53.906Z,11.77
2023-03-20T04:53:53.906Z,11.63
2023-03-20T04:54:53.903Z,11.65
2023-03-20T04:55:53.897Z,11.62
2023-03-20T04:56:53.893Z,11.65
2023-03-20T04:57:53.901Z,11.78
2023-03-20T04:58:53.904Z,11.63
2023-03-20T04:59:53.919Z,11.65
2023-03-20T05:00:53.929Z,11.63
2023-03-20T05:01:53.884Z,11.65
2023-03-20T05:02:53.885Z,11.66
2023-03-20T05:03:53.973Z,11.83
2023-03-20T05:04:53.862Z,11.77
2023-03-20T05:05:53.861Z,11.66
2023-03-20T05:06:53.850Z,11.69
2023-03-20T05:07:53.850Z,11.77
2023-03-20T05:08:53.856Z,11.72
2023-03-20T05:09:53.860Z,11.77
2023-03-20T05:10:53.831Z,11.72
2023-03-20T05:11:53.834Z,11.69
2023-03-20T05:12:53.848Z,11.72
2023-03-20T05:13:53.826Z,11.70
2023-03-20T05:14:53.827Z,11.70
2023-03-20T05:15:53.819Z,11.68
2023-03-20T05:16:53.833Z,11.70
2023-03-20T05:17:53.857Z,11.78
2023-03-20T05:18:53.824Z,11.73
2023-03-20T05:19:53.815Z,11.73
2023-03-20T05:20:53.838Z,11.73
2023-03-20T05:21:53.831Z,11.69
2023-03-20T05:22:53.782Z,11.70
2023-03-20T05:23:53.806Z,11.73
2023-03-20T05:24:53.789Z,11.73
2023-03-20T05:25:53.785Z,11.72
2023-03-20T05:26:53.769Z,11.69
2023-03-20T05:27:53.773Z,11.69
2023-03-20T05:28:53.762Z,11.69
2023-03-20T05:29:53.790Z,11.70
2023-03-20T05:30:53.789Z,11.65
2023-03-20T05:31:53.745Z,11.72
2023-03-20T05:32:53.800Z,11.73
2023-03-20T05:33:53.749Z,11.69
2023-03-20T05:34:53.742Z,11.72
2023-03-20T05:35:53.785Z,11.73
2023-03-20T05:36:53.734Z,11.69
2023-03-20T05:37:53.738Z,11.72
2023-03-20T05:38:53.724Z,11.73
2023-03-20T05:39:53.710Z,11.73
2023-03-20T05:40:53.708Z,11.73
2023-03-20T05:41:53.698Z,11.69
2023-03-20T05:42:53.699Z,11.73
2023-03-20T05:43:53.700Z,11.70
2023-03-20T05:44:53.703Z,11.68
2023-03-20T05:45:53.720Z,11.73
2023-03-20T05:46:53.689Z,11.72
2023-03-20T05:47:53.681Z,11.69
2023-03-20T05:48:53.675Z,11.77
2023-03-20T05:49:53.670Z,11.69
2023-03-20T05:50:53.673Z,11.72
2023-03-20T05:51:53.661Z,11.72
2023-03-20T05:52:53.655Z,11.69
2023-03-20T05:53:53.668Z,11.72
2023-03-20T05:54:53.659Z,11.69
2023-03-20T05:55:53.663Z,11.72
2023-03-20T05:56:53.692Z,11.73
2023-03-20T05:57:53.630Z,11.73
2023-03-20T05:58:53.646Z,11.69
2023-03-20T05:59:53.643Z,11.73
2023-03-20T06:00:53.628Z,11.73
2023-03-20T06:01:53.629Z,11.69
2023-03-20T06:02:53.720Z,11.75
2023-03-20T06:03:53.628Z,11.70
2023-03-20T06:04:53.627Z,11.72
2023-03-20T06:05:53.612Z,11.72
2023-03-20T06:06:53.633Z,11.83
2023-03-20T06:07:53.590Z,11.81
2023-03-20T06:08:53.606Z,11.91
2023-03-20T06:09:53.581Z,11.91
2023-03-20T06:10:53.587Z,11.84
2023-03-20T06:11:53.589Z,11.81
2023-03-20T06:12:53.588Z,11.84
2023-03-20T06:13:53.592Z,11.87
2023-03-20T06:14:53.613Z,11.78
2023-03-20T06:15:53.621Z,11.86
2023-03-20T06:16:53.598Z,11.78
2023-03-20T06:17:53.598Z,11.80
2023-03-20T06:18:53.583Z,11.80
2023-03-20T06:19:53.568Z,11.73
2023-03-20T06:20:53.562Z,11.72
2023-03-20T06:21:53.542Z,11.72
2023-03-20T06:22:53.586Z,11.73
2023-03-20T06:23:53.552Z,11.75
2023-03-20T06:24:55.384Z,11.70
2023-03-20T06:25:53.518Z,11.78
2023-03-20T06:26:53.520Z,11.78
2023-03-20T06:27:53.523Z,11.78
2023-03-20T06:28:53.516Z,11.73
2023-03-20T06:29:53.532Z,11.78
2023-03-20T06:30:53.660Z,11.69
2023-03-20T06:31:53.509Z,11.68
2023-03-20T06:32:53.581Z,11.72
2023-03-20T06:33:53.498Z,11.75
2023-03-20T06:34:53.479Z,11.70
2023-03-20T06:35:53.526Z,11.77
2023-03-20T06:36:53.492Z,11.72
2023-03-20T06:37:53.472Z,11.75
2023-03-20T06:38:53.480Z,11.70
2023-03-20T06:39:53.457Z,11.70
2023-03-20T06:40:53.462Z,11.73
2023-03-20T06:41:53.465Z,11.68
2023-03-20T06:42:53.465Z,11.70
2023-03-20T06:43:53.441Z,11.75
2023-03-20T06:44:53.438Z,11.78
2023-03-20T06:45:53.443Z,11.77
2023-03-20T06:46:53.457Z,11.70
2023-03-20T06:47:53.437Z,11.73
2023-03-20T06:48:53.435Z,11.68
2023-03-20T06:49:53.427Z,11.62
2023-03-20T06:50:53.439Z,11.70
2023-03-20T06:51:53.430Z,11.70
2023-03-20T06:52:53.417Z,11.62
2023-03-20T06:53:53.398Z,11.66
2023-03-20T06:54:53.403Z,11.63
2023-03-20T06:55:53.440Z,11.70
2023-03-20T06:56:53.385Z,11.60
2023-03-20T06:57:53.409Z,11.66
2023-03-20T06:58:53.377Z,11.60
2023-03-20T06:59:53.380Z,11.59
2023-03-20T07:00:53.422Z,11.55
2023-03-20T07:01:53.399Z,11.60
2023-03-20T07:02:53.367Z,11.65
2023-03-20T07:03:53.368Z,11.59
2023-03-20T07:04:53.472Z,11.59
2023-03-20T07:05:53.353Z,11.54
2023-03-20T07:06:53.355Z,11.60
2023-03-20T07:07:53.346Z,11.59
2023-03-20T07:08:53.346Z,11.60
2023-03-20T07:09:53.366Z,11.57
2023-03-20T07:10:53.357Z,11.57
2023-03-20T07:11:53.330Z,11.54
2023-03-20T07:12:53.329Z,11.51
2023-03-20T07:13:53.322Z,11.48
2023-03-20T07:14:53.328Z,11.45
2023-03-20T07:16:03.731Z,11.48
2023-03-20T07:16:53.401Z,11.48
2023-03-20T07:17:53.326Z,11.48
2023-03-20T07:18:53.317Z,11.33
2023-03-20T07:19:53.298Z,11.43
2023-03-20T07:20:53.299Z,11.43
2023-03-20T07:21:53.293Z,11.36
2023-03-20T07:22:53.283Z,11.27
2023-03-20T07:23:53.275Z,11.19
2023-03-20T07:24:53.279Z,11.22
2023-03-20T07:25:53.270Z,11.18
2023-03-20T07:26:53.290Z,11.22
2023-03-20T07:27:53.282Z,11.15
2023-03-20T07:28:53.274Z,11.14
2023-03-20T07:29:53.253Z,11.12
2023-03-20T07:30:53.293Z,11.10
2023-03-20T07:31:53.317Z,11.05
2023-03-20T07:32:53.274Z,11.11
2023-03-20T07:33:53.240Z,11.08
2023-03-20T07:34:53.249Z,11.04
2023-03-20T07:35:53.229Z,11.10
2023-03-20T07:36:53.256Z,11.07
2023-03-20T07:37:53.257Z,11.07
2023-03-20T07:38:53.211Z,11.08
2023-03-20T07:39:53.209Z,11.05
2023-03-20T07:40:53.212Z,11.07
2023-03-20T07:41:53.205Z,11.10
2023-03-20T07:42:53.209Z,11.00
2023-03-20T07:43:53.187Z,11.11
2023-03-20T07:44:53.199Z,11.10
2023-03-20T07:45:53.240Z,10.97
2023-03-20T07:46:53.210Z,10.94
2023-03-20T07:47:53.193Z,11.02
2023-03-20T07:48:53.153Z,10.90
2023-03-20T07:49:53.161Z,10.87
2023-03-20T07:50:53.149Z,10.87
2023-03-20T07:51:53.171Z,10.82
2023-03-20T07:52:53.150Z,10.87
2023-03-20T07:53:53.149Z,10.81
2023-03-20T07:54:53.131Z,10.92
2023-03-20T07:55:53.135Z,10.92
2023-03-20T07:56:53.141Z,10.92
2023-03-20T07:57:53.124Z,10.97
2023-03-20T07:58:53.126Z,11.02
2023-03-20T07:59:53.111Z,10.92
2023-03-20T08:00:53.119Z,10.97
2023-03-20T08:01:53.108Z,11.04
2023-03-20T08:02:53.189Z,11.00
2023-03-20T08:03:53.241Z,11.08
2023-03-20T08:04:53.098Z,11.18
2023-03-20T08:05:53.119Z,11.10
2023-03-20T08:06:53.128Z,11.25
2023-03-20T08:07:53.102Z,11.23
2023-03-20T08:08:53.081Z,11.17
2023-03-20T08:09:53.068Z,11.27
2023-03-20T08:10:53.100Z,11.33
2023-03-20T08:11:53.064Z,11.30
2023-03-20T08:12:53.069Z,11.33
2023-03-20T08:13:53.076Z,11.36
2023-03-20T08:14:53.074Z,11.36
2023-03-20T08:15:53.048Z,11.33
2023-03-20T08:17:10.214Z,11.33
2023-03-20T08:17:53.057Z,11.36
2023-03-20T08:18:53.058Z,11.36
2023-03-20T08:19:53.048Z,11.33
2023-03-20T08:20:53.026Z,11.36
2023-03-20T08:21:53.019Z,11.41
2023-03-20T08:22:53.034Z,11.40
2023-03-20T08:23:53.063Z,11.36
2023-03-20T08:24:53.074Z,11.40
2023-03-20T08:25:53.016Z,11.37
2023-03-20T08:26:53.006Z,11.33
2023-03-20T08:27:53.008Z,11.33
2023-03-20T08:28:53.021Z,11.48
2023-03-20T08:29:52.990Z,11.37
2023-03-20T08:30:53.118Z,11.47
2023-03-20T08:31:52.981Z,11.47
2023-03-20T08:32:53.108Z,11.48
2023-03-20T08:33:52.995Z,11.41
2023-03-20T08:34:52.977Z,11.41
2023-03-20T08:35:53.007Z,11.37
2023-03-20T08:36:52.974Z,11.36
2023-03-20T08:37:52.972Z,11.40
2023-03-20T08:38:52.963Z,11.36
2023-03-20T08:39:52.959Z,11.35
2023-03-20T08:40:52.980Z,11.44
2023-03-20T08:41:52.962Z,11.36
2023-03-20T08:42:52.945Z,11.35
2023-03-20T08:43:52.955Z,11.43
2023-03-20T08:44:52.994Z,11.47
2023-03-20T08:45:52.985Z,11.63
2023-03-20T08:46:52.967Z,11.60
2023-03-20T08:47:53.020Z,11.70
2023-03-20T08:48:52.912Z,11.73
2023-03-20T08:49:53.067Z,11.78
2023-03-20T08:50:52.936Z,11.91
2023-03-20T08:51:53.564Z,12.17
2023-03-20T08:52:52.893Z,12.43
2023-03-20T08:53:52.952Z,12.57
2023-03-20T08:54:52.897Z,12.62
2023-03-20T08:55:52.888Z,12.75
2023-03-20T08:56:52.897Z,12.72
2023-03-20T08:57:52.887Z,12.80
2023-03-20T08:58:54.927Z,12.86
2023-03-20T08:59:52.883Z,12.86
2023-03-20T09:00:52.878Z,12.85
2023-03-20T09:01:52.964Z,12.80
2023-03-20T09:02:52.937Z,12.73
2023-03-20T09:03:52.888Z,12.72
2023-03-20T09:04:52.876Z,12.76
2023-03-20T09:05:52.898Z,12.57
2023-03-20T09:06:52.881Z,12.61
2023-03-20T09:07:52.870Z,12.55
2023-03-20T09:08:52.873Z,12.53
2023-03-20T09:09:52.876Z,12.54
2023-03-20T09:10:53.568Z,12.49
2023-03-20T09:11:52.878Z,12.53
2023-03-20T09:12:52.873Z,12.50
2023-03-20T09:13:52.854Z,12.53
2023-03-20T09:14:52.841Z,12.50
2023-03-20T09:15:52.863Z,12.46
2023-03-20T09:16:52.854Z,12.46
2023-03-20T09:17:52.849Z,12.54
2023-03-20T09:18:52.824Z,12.57
2023-03-20T09:19:52.838Z,12.82
2023-03-20T09:20:52.836Z,12.85
2023-03-20T09:21:52.829Z,12.85
2023-03-20T09:22:52.808Z,12.87
2023-03-20T09:23:52.810Z,12.83
2023-03-20T09:24:52.844Z,12.86
2023-03-20T09:25:52.858Z,12.86
2023-03-20T09:26:52.832Z,12.83
2023-03-20T09:27:52.816Z,12.82
2023-03-20T09:28:52.799Z,12.82
2023-03-20T09:29:52.841Z,12.73
2023-03-20T09:30:52.822Z,12.75
2023-03-20T09:31:52.810Z,12.78
2023-03-20T09:32:52.875Z,12.76
2023-03-20T09:33:52.800Z,12.76
2023-03-20T09:34:52.850Z,12.76
2023-03-20T09:35:52.874Z,12.76
2023-03-20T09:36:52.798Z,12.72
2023-03-20T09:37:52.815Z,12.61
2023-03-20T09:38:52.778Z,12.61
2023-03-20T09:39:52.771Z,12.62
2023-03-20T09:40:52.807Z,12.60
2023-03-20T09:41:57.374Z,12.58
2023-03-20T09:42:52.781Z,12.57
2023-03-20T09:43:52.773Z,12.78
2023-03-20T09:44:52.793Z,12.68
2023-03-20T09:45:52.756Z,12.76
2023-03-20T09:46:52.889Z,12.80
2023-03-20T09:47:52.751Z,12.82
2023-03-20T09:48:54.517Z,12.70
2023-03-20T09:49:52.748Z,12.75
2023-03-20T09:50:52.749Z,12.65
2023-03-20T09:51:52.735Z,12.73
2023-03-20T09:52:52.758Z,12.73
2023-03-20T09:53:52.734Z,12.54
2023-03-20T09:54:54.720Z,12.62
2023-03-20T09:55:52.730Z,12.58
2023-03-20T09:56:52.733Z,12.57
2023-03-20T09:57:52.766Z,12.65
2023-03-20T09:58:52.740Z,12.79
2023-03-20T09:59:52.721Z,12.72
2023-03-20T10:00:52.743Z,12.75
2023-03-20T10:01:52.744Z,12.83
2023-03-20T10:02:52.697Z,12.80
2023-03-20T10:03:52.702Z,12.79
2023-03-20T10:04:52.749Z,12.80
2023-03-20T10:05:52.689Z,12.83
2023-03-20T10:06:52.697Z,12.82
2023-03-20T10:07:52.705Z,12.79
2023-03-20T10:08:52.690Z,12.85
2023-03-20T10:09:52.703Z,12.80
2023-03-20T10:10:52.682Z,12.83
2023-03-20T10:11:52.700Z,12.76
2023-03-20T10:12:52.681Z,12.75
2023-03-20T10:13:52.671Z,12.75
2023-03-20T10:14:52.664Z,12.76
2023-03-20T10:15:52.694Z,12.75
2023-03-20T10:16:52.659Z,12.70
2023-03-20T10:17:52.666Z,12.76
2023-03-20T10:18:52.652Z,12.72
2023-03-20T10:19:52.658Z,12.57
2023-03-20T10:20:52.660Z,12.54
2023-03-20T10:21:52.649Z,12.61
2023-03-20T10:22:52.648Z,12.58
2023-03-20T10:23:52.639Z,12.53
2023-03-20T10:24:52.641Z,12.58
2023-03-20T10:25:52.673Z,12.58
2023-03-20T10:26:52.628Z,12.62
2023-03-20T10:27:52.635Z,12.65
2023-03-20T10:28:52.625Z,12.62
2023-03-20T10:29:52.628Z,12.60
2023-03-20T10:30:52.611Z,12.54
2023-03-20T10:31:52.657Z,12.58
2023-03-20T10:32:52.748Z,12.64
2023-03-20T10:33:52.611Z,12.57
2023-03-20T10:34:52.608Z,12.61
2023-03-20T10:35:52.639Z,12.65
2023-03-20T10:36:52.601Z,12.73
2023-03-20T10:37:52.598Z,12.72
2023-03-20T10:38:52.586Z,12.61
2023-03-20T10:39:52.583Z,12.57
2023-03-20T10:40:52.574Z,12.64
2023-03-20T10:41:52.589Z,12.55
2023-03-20T10:42:52.594Z,12.62
2023-03-20T10:43:52.586Z,12.55
2023-03-20T10:44:52.602Z,12.55
2023-03-20T10:45:52.577Z,12.57
2023-03-20T10:46:52.612Z,12.54
2023-03-20T10:47:52.641Z,12.57
2023-03-20T10:48:52.557Z,12.54
2023-03-20T10:49:52.567Z,12.54
2023-03-20T10:50:52.566Z,12.57
2023-03-20T10:51:52.568Z,12.53
2023-03-20T10:52:52.551Z,12.54
2023-03-20T10:53:52.536Z,12.53
2023-03-20T10:54:52.540Z,12.64
2023-03-20T10:55:52.549Z,12.54
2023-03-20T10:56:52.553Z,12.47
2023-03-20T10:57:52.542Z,12.54
2023-03-20T10:58:52.550Z,12.68
2023-03-20T10:59:52.590Z,12.60
2023-03-20T11:00:52.594Z,12.64
2023-03-20T11:01:52.552Z,12.61
2023-03-20T11:02:52.561Z,12.58
2023-03-20T11:03:52.591Z,12.62
2023-03-20T11:04:52.553Z,12.60
2023-03-20T11:06:08.296Z,12.73
2023-03-20T11:06:52.548Z,12.75
2023-03-20T11:07:52.487Z,12.73
2023-03-20T11:08:52.528Z,12.72
2023-03-20T11:09:52.525Z,12.75
2023-03-20T11:10:52.529Z,12.76
2023-03-20T11:11:52.539Z,12.73
2023-03-20T11:12:52.520Z,12.75
2023-03-20T11:13:52.483Z,12.72
2023-03-20T11:14:52.504Z,12.72
2023-03-20T11:15:52.483Z,12.70
2023-03-20T11:16:52.514Z,12.78
2023-03-20T11:17:52.458Z,12.73
2023-03-20T11:18:52.468Z,12.72
2023-03-20T11:19:52.461Z,12.73
2023-03-20T11:20:52.455Z,12.76
2023-03-20T11:21:52.457Z,12.80
2023-03-20T11:22:52.458Z,12.76
2023-03-20T11:23:52.505Z,12.75
2023-03-20T11:24:52.465Z,12.76
2023-03-20T11:25:52.495Z,12.76
2023-03-20T11:26:52.439Z,12.75
2023-03-20T11:27:52.462Z,12.76
2023-03-20T11:28:52.428Z,12.68
2023-03-20T11:29:52.437Z,12.78
2023-03-20T11:31:04.333Z,12.75
2023-03-20T11:31:52.468Z,12.75
2023-03-20T11:32:52.447Z,12.82
2023-03-20T11:33:52.419Z,12.82
2023-03-20T11:34:52.409Z,12.82
2023-03-20T11:35:52.419Z,12.91
2023-03-20T11:37:06.369Z,12.93
2023-03-20T11:37:52.390Z,12.94
2023-03-20T11:38:52.403Z,13.00
2023-03-20T11:39:52.400Z,13.00
2023-03-20T11:40:52.399Z,13.03
2023-03-20T11:41:52.388Z,12.98
2023-03-20T11:42:52.386Z,13.01
2023-03-20T11:43:52.382Z,13.01
2023-03-20T11:44:52.378Z,13.01
2023-03-20T11:45:52.415Z,13.01
2023-03-20T11:46:52.408Z,12.95
2023-03-20T11:47:52.402Z,12.93
2023-03-20T11:48:52.376Z,12.90
2023-03-20T11:49:52.421Z,12.91
2023-03-20T11:50:52.355Z,12.86
2023-03-20T11:51:52.356Z,12.87
2023-03-20T11:52:52.355Z,12.91
2023-03-20T11:53:52.350Z,12.85
2023-03-20T11:54:52.390Z,12.83
2023-03-20T11:55:52.354Z,12.90
2023-03-20T11:56:52.360Z,12.85
2023-03-20T11:57:52.353Z,12.95
2023-03-20T11:58:52.340Z,12.83
2023-03-20T11:59:52.339Z,12.82
2023-03-20T12:00:52.338Z,12.75
2023-03-20T12:01:52.361Z,12.79
2023-03-20T12:02:52.598Z,12.75
2023-03-20T12:03:52.439Z,12.73
2023-03-20T12:04:52.334Z,12.78
2023-03-20T12:05:52.349Z,12.75
2023-03-20T12:06:52.309Z,12.72
2023-03-20T12:07:52.297Z,12.67
2023-03-20T12:08:52.329Z,12.68
2023-03-20T12:09:52.329Z,12.65
2023-03-20T12:10:52.313Z,12.73
2023-03-20T12:11:52.290Z,12.70
2023-03-20T12:12:52.300Z,12.76
2023-03-20T12:13:52.289Z,12.73
2023-03-20T12:14:52.313Z,12.73
2023-03-20T12:15:52.391Z,12.70
2023-03-20T12:16:52.290Z,12.65
2023-03-20T12:17:52.289Z,12.75
2023-03-20T12:18:52.286Z,12.82
2023-03-20T12:19:52.257Z,12.83
2023-03-20T12:20:52.255Z,12.83
2023-03-20T12:21:52.286Z,12.82
2023-03-20T12:22:52.254Z,12.80
2023-03-20T12:23:52.296Z,12.93
2023-03-20T12:24:52.258Z,12.98
2023-03-20T12:25:52.263Z,13.03
2023-03-20T12:26:52.243Z,13.00
2023-03-20T12:27:52.245Z,13.08
2023-03-20T12:28:52.247Z,13.16
2023-03-20T12:29:52.272Z,13.41
2023-03-20T12:30:52.271Z,13.42
2023-03-20T12:31:52.295Z,13.50
2023-03-20T12:32:52.276Z,13.52
2023-03-20T12:33:52.233Z,13.60
2023-03-20T12:34:52.218Z,13.60
2023-03-20T12:35:52.276Z,13.60
2023-03-20T12:36:52.223Z,13.65
2023-03-20T12:37:52.232Z,13.60
2023-03-20T12:38:52.214Z,13.52
2023-03-20T12:39:52.258Z,13.44
2023-03-20T12:40:52.202Z,13.35
2023-03-20T12:41:52.191Z,13.35
2023-03-20T12:42:52.194Z,13.31
2023-03-20T12:43:52.200Z,13.20
2023-03-20T12:44:52.209Z,13.18
2023-03-20T12:45:52.180Z,13.15
2023-03-20T12:46:52.327Z,13.08
2023-03-20T12:47:52.187Z,13.12
2023-03-20T12:48:52.180Z,13.08
2023-03-20T12:49:52.168Z,13.08
2023-03-20T12:50:52.195Z,13.11
2023-03-20T12:51:52.160Z,13.12
2023-03-20T12:52:52.182Z,13.11